Blanchester, Ohio
Current Conditions -  °F | °C
As of 12:54 PM on Saturday 20 Dec 2014 (Local Time) from KILN Reporting Station
Overcast Overcast  
Wind Chill: 29°   Ceiling: 1500
Heat Index: 29°   Visibility: 7mi
Dew Point: 22°   Wind: 0mph
Humidity: 75%   Direction: NA
Pressure: 30.25"   Gusts: NA
Location:  39.29°N, 83.99°W
Report Text: KILN 201754Z AUTO 00000KT 7SM OVC015 M02/M06 A3025 RMK AO2 SLP272 T10171056 11011 21022 58008
Loading
Personal Weather Stations






























Interactive Weather Map New forecast layout! Learn more

10-Day Weather Forecast

Advertisements
Track Severe Weather on mobile